createdAt,value
2017-12-29T00:00:19.040Z,99308
2017-12-29T00:01:18.956Z,99308
2017-12-29T00:02:18.058Z,99308
2017-12-29T00:03:19.062Z,99313
2017-12-29T00:04:18.275Z,99305
2017-12-29T00:05:18.288Z,99311
2017-12-29T00:06:18.235Z,99311
2017-12-29T00:07:18.259Z,99310
2017-12-29T00:08:18.409Z,99314
2017-12-29T00:09:18.395Z,99314
2017-12-29T00:10:19.503Z,99316
2017-12-29T00:11:19.547Z,99307
2017-12-29T00:12:18.565Z,99315
2017-12-29T00:13:18.559Z,99313
2017-12-29T00:14:18.728Z,99316
2017-12-29T00:15:18.762Z,99304
2017-12-29T00:16:18.722Z,99314
2017-12-29T00:17:18.777Z,99321
2017-12-29T00:18:19.900Z,99314
2017-12-29T00:19:18.916Z,99312
2017-12-29T00:20:19.092Z,99313
2017-12-29T00:21:19.025Z,99311
2017-12-29T00:22:19.144Z,99310
2017-12-29T00:23:19.104Z,99307
2017-12-29T00:24:20.104Z,99312
2017-12-29T00:25:20.281Z,99320
2017-12-29T00:26:19.205Z,99314
2017-12-29T00:27:19.334Z,99316
2017-12-29T00:28:20.263Z,99319
2017-12-29T00:29:19.462Z,99317
2017-12-29T00:30:19.534Z,99319
2017-12-29T00:31:20.457Z,99325
2017-12-29T00:32:20.651Z,99323
2017-12-29T00:33:20.629Z,99325
2017-12-29T00:34:20.804Z,99325
2017-12-29T00:35:19.871Z,99328
2017-12-29T00:36:21.092Z,99319
2017-12-29T00:37:19.938Z,99325
2017-12-29T00:38:21.025Z,99331
2017-12-29T00:39:21.066Z,99328
2017-12-29T00:40:20.010Z,99328
2017-12-29T00:41:20.146Z,99329
2017-12-29T00:42:20.154Z,99332
2017-12-29T00:43:21.128Z,99337
2017-12-29T00:44:20.317Z,99338
2017-12-29T00:45:20.279Z,99335
2017-12-29T00:46:21.419Z,99336
2017-12-29T00:47:20.523Z,99336
2017-12-29T00:48:20.446Z,99337
2017-12-29T00:49:21.447Z,99336
2017-12-29T00:50:20.650Z,99334
2017-12-29T00:51:20.588Z,99339
2017-12-29T00:52:20.692Z,99335
2017-12-29T00:53:20.686Z,99336
2017-12-29T00:54:21.841Z,99339
2017-12-29T00:55:20.747Z,99342
2017-12-29T00:56:20.888Z,99344
2017-12-29T00:57:20.790Z,99343
2017-12-29T00:58:21.795Z,99345
2017-12-29T00:59:20.929Z,99342
2017-12-29T01:00:21.982Z,99335
2017-12-29T01:01:21.203Z,99349
2017-12-29T01:02:21.073Z,99347
2017-12-29T01:03:21.260Z,99359
2017-12-29T01:04:21.207Z,99344
2017-12-29T01:05:22.391Z,99351
2017-12-29T01:06:21.339Z,99353
2017-12-29T01:07:21.370Z,99348
2017-12-29T01:08:21.524Z,99359
2017-12-29T01:09:21.461Z,99365
2017-12-29T01:10:21.640Z,99356
2017-12-29T01:11:21.591Z,99365
2017-12-29T01:12:22.544Z,99370
2017-12-29T01:13:22.747Z,99370
2017-12-29T01:14:21.721Z,99364
2017-12-29T01:15:22.854Z,99369
2017-12-29T01:16:21.862Z,99371
2017-12-29T01:17:21.977Z,99375
2017-12-29T01:18:21.955Z,99375
2017-12-29T01:19:21.962Z,99377
2017-12-29T01:20:22.142Z,99374
2017-12-29T01:21:23.000Z,99366
2017-12-29T01:22:22.212Z,99382
2017-12-29T01:23:23.229Z,99377
2017-12-29T01:24:23.236Z,99370
2017-12-29T01:25:22.201Z,99379
2017-12-29T01:26:22.347Z,99384
2017-12-29T01:27:23.328Z,99380
2017-12-29T01:28:22.442Z,99380
2017-12-29T01:29:22.551Z,99376
2017-12-29T01:30:22.603Z,99384
2017-12-29T01:31:23.543Z,99384
2017-12-29T01:32:22.721Z,99386
2017-12-29T01:33:22.605Z,99382
2017-12-29T01:34:22.770Z,99383
2017-12-29T01:35:22.814Z,99381
2017-12-29T01:36:23.806Z,99378
2017-12-29T01:37:22.926Z,99377
2017-12-29T01:38:22.842Z,99371
2017-12-29T01:39:22.837Z,99371
2017-12-29T01:40:22.916Z,99375
2017-12-29T01:41:24.054Z,99366
2017-12-29T01:42:23.097Z,99374
2017-12-29T01:43:23.027Z,99363
2017-12-29T01:44:23.110Z,99374
2017-12-29T01:45:23.144Z,99373
2017-12-29T01:46:24.149Z,99371
2017-12-29T01:47:24.171Z,99378
2017-12-29T01:48:23.215Z,99373
2017-12-29T01:49:24.278Z,99376
2017-12-29T01:50:23.299Z,99373
2017-12-29T01:51:24.394Z,99372
2017-12-29T01:52:24.459Z,99377
2017-12-29T01:53:23.515Z,99368
2017-12-29T01:54:23.475Z,99378
2017-12-29T01:55:23.563Z,99372
2017-12-29T01:56:23.558Z,99378
2017-12-29T01:57:23.642Z,99371
2017-12-29T01:58:23.647Z,99373
2017-12-29T01:59:23.813Z,99369
2017-12-29T02:00:24.736Z,99369
2017-12-29T02:01:23.931Z,99368
2017-12-29T02:02:23.853Z,99365
2017-12-29T02:03:23.906Z,99370
2017-12-29T02:04:25.012Z,99372
2017-12-29T02:05:24.109Z,99375
2017-12-29T02:06:24.060Z,99370
2017-12-29T02:07:24.246Z,99376
2017-12-29T02:08:24.748Z,99378
2017-12-29T02:09:25.294Z,99370
2017-12-29T02:10:24.255Z,99372
2017-12-29T02:11:24.315Z,99372
2017-12-29T02:12:24.330Z,99371
2017-12-29T02:13:25.343Z,99378
2017-12-29T02:14:25.414Z,99377
2017-12-29T02:15:24.470Z,99375
2017-12-29T02:16:25.533Z,99378
2017-12-29T02:17:24.574Z,99370
2017-12-29T02:18:24.743Z,99376
2017-12-29T02:19:25.750Z,99375
2017-12-29T02:20:24.808Z,99381
2017-12-29T02:21:24.901Z,99381
2017-12-29T02:22:24.823Z,99368
2017-12-29T02:23:25.939Z,99372
2017-12-29T02:24:25.005Z,99376
2017-12-29T02:25:25.092Z,99381
2017-12-29T02:26:26.149Z,99377
2017-12-29T02:27:25.216Z,99376
2017-12-29T02:28:26.269Z,99382
2017-12-29T02:29:26.269Z,99381
2017-12-29T02:30:26.362Z,99378
2017-12-29T02:31:26.340Z,99380
2017-12-29T02:32:25.481Z,99369
2017-12-29T02:33:26.526Z,99371
2017-12-29T02:34:25.477Z,99378
2017-12-29T02:35:25.628Z,99366
2017-12-29T02:36:26.568Z,99374
2017-12-29T02:37:26.517Z,99373
2017-12-29T02:38:26.697Z,99371
2017-12-29T02:39:25.674Z,99370
2017-12-29T02:40:25.813Z,99372
2017-12-29T02:41:26.697Z,99375
2017-12-29T02:42:26.742Z,99379
2017-12-29T02:43:25.866Z,99379
2017-12-29T02:44:27.066Z,99379
2017-12-29T02:45:26.114Z,99379
2017-12-29T02:46:26.108Z,99378
2017-12-29T02:47:27.101Z,99381
2017-12-29T02:48:26.189Z,99382
2017-12-29T02:49:26.296Z,99382
2017-12-29T02:50:27.365Z,99381
2017-12-29T02:51:27.413Z,99385
2017-12-29T02:52:26.362Z,99384
2017-12-29T02:53:26.475Z,99386
2017-12-29T02:54:26.474Z,99381
2017-12-29T02:55:26.515Z,99383
2017-12-29T02:56:27.645Z,99387
2017-12-29T02:57:27.705Z,99388
2017-12-29T02:58:26.661Z,99379
2017-12-29T02:59:26.723Z,99373
2017-12-29T03:00:27.852Z,99382
2017-12-29T03:01:26.820Z,99389
2017-12-29T03:02:27.027Z,99380
2017-12-29T03:03:27.985Z,99385
2017-12-29T03:04:27.213Z,99385
2017-12-29T03:05:27.138Z,99375
2017-12-29T03:06:27.200Z,99381
2017-12-29T03:07:28.302Z,99375
2017-12-29T03:08:27.250Z,99380
2017-12-29T03:09:27.417Z,99382
2017-12-29T03:10:27.378Z,99377
2017-12-29T03:11:27.464Z,99381
2017-12-29T03:12:27.632Z,99382
2017-12-29T03:13:28.488Z,99381
2017-12-29T03:14:27.581Z,99379
2017-12-29T03:15:27.602Z,99384
2017-12-29T03:16:27.656Z,99380
2017-12-29T03:17:27.818Z,99382
2017-12-29T03:18:27.839Z,99379
2017-12-29T03:19:27.778Z,99377
2017-12-29T03:20:28.909Z,99376
2017-12-29T03:21:27.977Z,99378
2017-12-29T03:22:28.052Z,99375
2017-12-29T03:23:28.975Z,99376
2017-12-29T03:24:28.040Z,99375
2017-12-29T03:25:29.127Z,99369
2017-12-29T03:26:28.160Z,99376
2017-12-29T03:27:29.176Z,99372
2017-12-29T03:28:29.222Z,99371
2017-12-29T03:29:29.188Z,99374
2017-12-29T03:30:29.252Z,99373
2017-12-29T03:31:29.248Z,99376
2017-12-29T03:32:28.324Z,99376
2017-12-29T03:33:28.326Z,99375
2017-12-29T03:34:28.521Z,99376
2017-12-29T03:35:28.467Z,99371
2017-12-29T03:36:28.524Z,99373
2017-12-29T03:37:29.538Z,99368
2017-12-29T03:38:28.614Z,99371
2017-12-29T03:39:28.685Z,99365
2017-12-29T03:40:28.766Z,99373
2017-12-29T03:41:29.810Z,99375
2017-12-29T03:42:29.831Z,99373
2017-12-29T03:43:29.009Z,99373
2017-12-29T03:44:29.089Z,99367
2017-12-29T03:45:30.139Z,99374
2017-12-29T03:46:30.235Z,99364
2017-12-29T03:47:29.224Z,99378
2017-12-29T03:48:29.226Z,99366
2017-12-29T03:49:29.279Z,99377
2017-12-29T03:50:29.300Z,99369
2017-12-29T03:51:30.484Z,99367
2017-12-29T03:52:29.398Z,99361
2017-12-29T03:53:29.564Z,99366
2017-12-29T03:54:29.546Z,99366
2017-12-29T03:55:29.628Z,99369
2017-12-29T03:56:30.770Z,99361
2017-12-29T03:57:30.808Z,99363
2017-12-29T03:58:29.783Z,99358
2017-12-29T03:59:29.960Z,99354
2017-12-29T04:00:30.019Z,99369
2017-12-29T04:01:31.063Z,99354
2017-12-29T04:02:30.017Z,99360
2017-12-29T04:03:31.097Z,99356
2017-12-29T04:04:30.125Z,99359
2017-12-29T04:05:31.205Z,99358
2017-12-29T04:06:31.255Z,99357
2017-12-29T04:07:30.245Z,99361
2017-12-29T04:08:31.413Z,99362
2017-12-29T04:09:30.414Z,99348
2017-12-29T04:10:31.579Z,99357
2017-12-29T04:11:30.582Z,99345
2017-12-29T04:12:31.716Z,99354
2017-12-29T04:13:30.802Z,99349
2017-12-29T04:14:31.873Z,99354
2017-12-29T04:15:30.949Z,99356
2017-12-29T04:16:30.925Z,99353
2017-12-29T04:17:30.962Z,99354
2017-12-29T04:18:31.085Z,99352
2017-12-29T04:19:32.089Z,99359
2017-12-29T04:20:31.128Z,99359
2017-12-29T04:21:32.053Z,99363
2017-12-29T04:22:31.102Z,99355
2017-12-29T04:23:31.143Z,99364
2017-12-29T04:24:32.223Z,99360
2017-12-29T04:25:31.305Z,99364
2017-12-29T04:26:31.211Z,99370
2017-12-29T04:27:31.249Z,99368
2017-12-29T04:28:31.402Z,99362
2017-12-29T04:29:31.384Z,99370
2017-12-29T04:30:31.409Z,99374
2017-12-29T04:31:31.460Z,99374
2017-12-29T04:32:31.639Z,99375
2017-12-29T04:33:31.600Z,99376
2017-12-29T04:34:31.657Z,99377
2017-12-29T04:35:31.824Z,99368
2017-12-29T04:36:32.760Z,99373
2017-12-29T04:37:31.881Z,99375
2017-12-29T04:38:31.887Z,99379
2017-12-29T04:39:32.080Z,99374
2017-12-29T04:40:32.130Z,99378
2017-12-29T04:41:32.200Z,99378
2017-12-29T04:42:32.182Z,99371
2017-12-29T04:43:33.211Z,99379
2017-12-29T04:44:32.414Z,99379
2017-12-29T04:45:32.517Z,99381
2017-12-29T04:46:33.573Z,99383
2017-12-29T04:47:32.581Z,99384
2017-12-29T04:48:32.685Z,99384
2017-12-29T04:49:33.683Z,99386
2017-12-29T04:50:32.746Z,99382
2017-12-29T04:51:33.636Z,99386
2017-12-29T04:52:32.684Z,99385
2017-12-29T04:53:32.694Z,99386
2017-12-29T04:54:32.785Z,99386
2017-12-29T04:55:32.854Z,99392
2017-12-29T04:56:33.943Z,99390
2017-12-29T04:57:32.909Z,99393
2017-12-29T04:58:32.968Z,99394
2017-12-29T04:59:34.113Z,99395
2017-12-29T05:00:34.185Z,99393
2017-12-29T05:01:33.234Z,99391
2017-12-29T05:02:33.229Z,99395
2017-12-29T05:03:34.341Z,99397
2017-12-29T05:04:33.365Z,99394
2017-12-29T05:05:33.379Z,99396
2017-12-29T05:06:33.561Z,99399
2017-12-29T05:07:34.585Z,99399
2017-12-29T05:08:33.661Z,99403
2017-12-29T05:09:33.619Z,99405
2017-12-29T05:10:33.705Z,99403
2017-12-29T05:11:33.797Z,99395
2017-12-29T05:12:33.913Z,99402
2017-12-29T05:13:33.962Z,99407
2017-12-29T05:14:33.887Z,99403
2017-12-29T05:15:35.049Z,99404
2017-12-29T05:16:33.980Z,99401
2017-12-29T05:17:35.160Z,99405
2017-12-29T05:18:34.211Z,99405
2017-12-29T05:19:34.170Z,99408
2017-12-29T05:20:35.224Z,99407
2017-12-29T05:21:34.444Z,99398
2017-12-29T05:22:34.364Z,99410
2017-12-29T05:23:35.370Z,99399
2017-12-29T05:24:34.503Z,99405
2017-12-29T05:25:34.569Z,99411
2017-12-29T05:26:35.618Z,99406
2017-12-29T05:27:34.615Z,99403
2017-12-29T05:28:35.581Z,99404
2017-12-29T05:29:35.713Z,99405
2017-12-29T05:30:35.794Z,99401
2017-12-29T05:31:34.752Z,99408
2017-12-29T05:32:34.880Z,99411
2017-12-29T05:33:35.154Z,99412
2017-12-29T05:34:34.843Z,99412
2017-12-29T05:35:34.970Z,99409
2017-12-29T05:36:34.975Z,99414
2017-12-29T05:37:34.871Z,99412
2017-12-29T05:38:35.897Z,99411
2017-12-29T05:39:35.079Z,99411
2017-12-29T05:40:36.135Z,99417
2017-12-29T05:41:36.118Z,99415
2017-12-29T05:42:35.127Z,99418
2017-12-29T05:43:35.252Z,99417
2017-12-29T05:44:36.359Z,99411
2017-12-29T05:45:36.314Z,99409
2017-12-29T05:46:36.371Z,99412
2017-12-29T05:47:36.520Z,99413
2017-12-29T05:48:35.488Z,99409
2017-12-29T05:49:35.674Z,99410
2017-12-29T05:50:36.704Z,99407
2017-12-29T05:51:36.638Z,99405
2017-12-29T05:52:36.698Z,99410
2017-12-29T05:53:35.812Z,99406
2017-12-29T05:54:35.856Z,99404
2017-12-29T05:55:36.928Z,99395
2017-12-29T05:56:35.882Z,99401
2017-12-29T05:57:35.975Z,99403
2017-12-29T05:58:36.012Z,99401
2017-12-29T05:59:36.004Z,99404
2017-12-29T06:00:37.074Z,99404
2017-12-29T06:01:37.127Z,99406
2017-12-29T06:02:37.312Z,99409
2017-12-29T06:03:36.310Z,99404
2017-12-29T06:04:36.392Z,99411
2017-12-29T06:05:36.374Z,99408
2017-12-29T06:06:37.364Z,99408
2017-12-29T06:07:36.444Z,99406
2017-12-29T06:08:36.472Z,99397
2017-12-29T06:09:37.538Z,99402
2017-12-29T06:10:36.556Z,99404
2017-12-29T06:11:36.734Z,99396
2017-12-29T06:12:36.739Z,99397
2017-12-29T06:13:36.851Z,99404
2017-12-29T06:14:36.851Z,99396
2017-12-29T06:15:37.783Z,99405
2017-12-29T06:16:36.852Z,99408
2017-12-29T06:17:36.974Z,99410
2017-12-29T06:18:37.964Z,99410
2017-12-29T06:19:38.020Z,99409
2017-12-29T06:20:37.118Z,99408
2017-12-29T06:21:38.117Z,99409
2017-12-29T06:22:37.080Z,99404
2017-12-29T06:23:37.176Z,99407
2017-12-29T06:24:38.165Z,99406
2017-12-29T06:25:38.175Z,99406
2017-12-29T06:26:37.174Z,99401
2017-12-29T06:27:37.355Z,99407
2017-12-29T06:28:37.326Z,99407
2017-12-29T06:29:37.485Z,99398
2017-12-29T06:30:37.383Z,99403
2017-12-29T06:31:37.438Z,99397
2017-12-29T06:32:37.493Z,99403
2017-12-29T06:33:38.553Z,99395
2017-12-29T06:34:37.638Z,99407
2017-12-29T06:35:37.821Z,99407
2017-12-29T06:36:37.779Z,99407
2017-12-29T06:37:37.799Z,99410
2017-12-29T06:38:37.831Z,99406
2017-12-29T06:39:37.972Z,99411
2017-12-29T06:40:38.040Z,99409
2017-12-29T06:41:38.927Z,99407
2017-12-29T06:42:38.023Z,99407
2017-12-29T06:43:39.204Z,99409
2017-12-29T06:44:38.246Z,99404
2017-12-29T06:45:39.237Z,99407
2017-12-29T06:46:38.164Z,99402
2017-12-29T06:47:38.287Z,99400
2017-12-29T06:48:39.285Z,99400
2017-12-29T06:49:38.406Z,99406
2017-12-29T06:50:39.333Z,99407
2017-12-29T06:51:38.394Z,99400
2017-12-29T06:52:39.373Z,99412
2017-12-29T06:53:38.597Z,99411
2017-12-29T06:54:38.660Z,99411
2017-12-29T06:55:39.647Z,99414
2017-12-29T06:56:38.632Z,99412
2017-12-29T06:57:38.696Z,99410
2017-12-29T06:58:38.729Z,99406
2017-12-29T06:59:38.811Z,99412
2017-12-29T07:00:39.919Z,99408
2017-12-29T07:01:39.090Z,99407
2017-12-29T07:02:39.033Z,99406
2017-12-29T07:03:40.177Z,99404
2017-12-29T07:04:40.234Z,99404
2017-12-29T07:05:40.218Z,99395
2017-12-29T07:06:40.287Z,99401
2017-12-29T07:07:39.268Z,99397
2017-12-29T07:08:39.305Z,99397
2017-12-29T07:09:39.391Z,99404
2017-12-29T07:10:39.489Z,99402
2017-12-29T07:11:39.624Z,99402
2017-12-29T07:12:39.590Z,99397
2017-12-29T07:13:39.682Z,99402
2017-12-29T07:14:39.799Z,99398
2017-12-29T07:15:39.809Z,99391
2017-12-29T07:16:39.812Z,99406
2017-12-29T07:17:39.947Z,99404
2017-12-29T07:18:41.094Z,99402
2017-12-29T07:19:40.056Z,99408
2017-12-29T07:20:41.172Z,99401
2017-12-29T07:21:41.161Z,99412
2017-12-29T07:22:41.240Z,99410
2017-12-29T07:23:41.325Z,99409
2017-12-29T07:24:41.239Z,99405
2017-12-29T07:25:41.430Z,99396
2017-12-29T07:26:41.566Z,99397
2017-12-29T07:27:40.471Z,99401
2017-12-29T07:28:41.596Z,99400
2017-12-29T07:29:40.623Z,99403
2017-12-29T07:30:40.654Z,99404
2017-12-29T07:31:40.658Z,99397
2017-12-29T07:32:40.606Z,99401
2017-12-29T07:33:40.775Z,99401
2017-12-29T07:34:40.857Z,99405
2017-12-29T07:35:40.781Z,99398
2017-12-29T07:36:40.803Z,99398
2017-12-29T07:37:41.889Z,99394
2017-12-29T07:38:40.932Z,99384
2017-12-29T07:39:40.867Z,99393
2017-12-29T07:40:40.954Z,99393
2017-12-29T07:41:41.023Z,99391
2017-12-29T07:42:42.068Z,99392
2017-12-29T07:43:41.135Z,99388
2017-12-29T07:44:41.290Z,99386
2017-12-29T07:45:41.380Z,99385
2017-12-29T07:46:42.419Z,99386
2017-12-29T07:47:42.435Z,99385
2017-12-29T07:48:41.480Z,99384
2017-12-29T07:49:42.439Z,99384
2017-12-29T07:50:42.597Z,99386
2017-12-29T07:51:42.643Z,99387
2017-12-29T07:52:42.658Z,99374
2017-12-29T07:53:42.672Z,99383
2017-12-29T07:54:41.617Z,99384
2017-12-29T07:55:41.747Z,99381
2017-12-29T07:56:42.648Z,99380
2017-12-29T07:57:41.783Z,99380
2017-12-29T07:58:41.801Z,99373
2017-12-29T07:59:41.873Z,99380
2017-12-29T08:00:42.975Z,99376
2017-12-29T08:01:41.904Z,99376
2017-12-29T08:02:41.945Z,99379
2017-12-29T08:03:43.058Z,99375
2017-12-29T08:04:42.184Z,99376
2017-12-29T08:05:42.116Z,99365
2017-12-29T08:06:42.274Z,99372
2017-12-29T08:07:42.270Z,99371
2017-12-29T08:08:42.240Z,99368
2017-12-29T08:09:42.324Z,99361
2017-12-29T08:10:43.370Z,99361
2017-12-29T08:11:42.600Z,99364
2017-12-29T08:12:42.578Z,99358
2017-12-29T08:13:42.611Z,99362
2017-12-29T08:14:43.692Z,99358
2017-12-29T08:15:42.683Z,99361
2017-12-29T08:16:42.866Z,99358
2017-12-29T08:17:42.808Z,99350
2017-12-29T08:18:42.833Z,99348
2017-12-29T08:19:43.900Z,99352
2017-12-29T08:20:42.948Z,99357
2017-12-29T08:21:42.954Z,99355
2017-12-29T08:22:44.027Z,99354
2017-12-29T08:23:42.956Z,99351
2017-12-29T08:24:43.103Z,99353
2017-12-29T08:25:43.041Z,99352
2017-12-29T08:26:43.162Z,99344
2017-12-29T08:27:43.149Z,99346
2017-12-29T08:28:44.187Z,99353
2017-12-29T08:29:44.188Z,99349
2017-12-29T08:30:43.246Z,99343
2017-12-29T08:31:44.423Z,99346
2017-12-29T08:32:43.399Z,99344
2017-12-29T08:33:43.380Z,99345
2017-12-29T08:34:43.584Z,99349
2017-12-29T08:35:44.636Z,99346
2017-12-29T08:36:43.708Z,99346
2017-12-29T08:37:43.638Z,99343
2017-12-29T08:38:43.779Z,99353
2017-12-29T08:39:43.868Z,99342
2017-12-29T08:40:43.879Z,99347
2017-12-29T08:41:44.885Z,99348
2017-12-29T08:42:44.957Z,99352
2017-12-29T08:43:45.139Z,99351
2017-12-29T08:44:44.152Z,99355
2017-12-29T08:45:44.163Z,99349
2017-12-29T08:46:44.224Z,99355
2017-12-29T08:47:44.231Z,99346
2017-12-29T08:48:44.305Z,99349
2017-12-29T08:49:44.430Z,99344
2017-12-29T08:50:45.485Z,99350
2017-12-29T08:51:45.502Z,99349
2017-12-29T08:52:45.436Z,99346
2017-12-29T08:53:44.502Z,99346
2017-12-29T08:54:44.668Z,99349
2017-12-29T08:55:45.730Z,99343
2017-12-29T08:56:44.788Z,99345
2017-12-29T08:57:44.817Z,99349
2017-12-29T08:58:45.873Z,99347
2017-12-29T08:59:44.810Z,99358
2017-12-29T09:00:44.808Z,99351
2017-12-29T09:01:44.968Z,99352
2017-12-29T09:02:45.976Z,99357
2017-12-29T09:03:45.891Z,99357
2017-12-29T09:04:45.016Z,99352
2017-12-29T09:05:46.013Z,99350
2017-12-29T09:06:45.097Z,99352
2017-12-29T09:07:45.206Z,99346
2017-12-29T09:08:46.178Z,99347
2017-12-29T09:09:46.164Z,99338
2017-12-29T09:10:45.270Z,99339
2017-12-29T09:11:45.393Z,99332
2017-12-29T09:12:46.306Z,99336
2017-12-29T09:13:45.430Z,99331
2017-12-29T09:14:46.585Z,99331
2017-12-29T09:15:46.584Z,99335
2017-12-29T09:16:46.745Z,99335
2017-12-29T09:17:45.843Z,99331
2017-12-29T09:18:45.918Z,99327
2017-12-29T09:19:46.962Z,99323
2017-12-29T09:20:45.944Z,99315
2017-12-29T09:21:47.037Z,99313
2017-12-29T09:22:46.095Z,99322
2017-12-29T09:23:47.069Z,99325
2017-12-29T09:24:46.992Z,99328
2017-12-29T09:25:46.146Z,99326
2017-12-29T09:26:46.123Z,99325
2017-12-29T09:27:46.125Z,99330
2017-12-29T09:28:46.238Z,99322
2017-12-29T09:29:47.170Z,99326
2017-12-29T09:30:46.274Z,99314
2017-12-29T09:31:46.349Z,99317
2017-12-29T09:32:46.472Z,99323
2017-12-29T09:33:46.355Z,99319
2017-12-29T09:34:47.469Z,99320
2017-12-29T09:35:47.516Z,99314
2017-12-29T09:36:47.593Z,99311
2017-12-29T09:37:46.528Z,99312
2017-12-29T09:38:46.601Z,99312
2017-12-29T09:39:46.669Z,99313
2017-12-29T09:40:47.797Z,99313
2017-12-29T09:41:46.889Z,99311
2017-12-29T09:42:47.785Z,99313
2017-12-29T09:43:46.927Z,99312
2017-12-29T09:44:47.963Z,99309
2017-12-29T09:45:47.913Z,99307
2017-12-29T09:46:46.964Z,99297
2017-12-29T09:47:47.012Z,99299
2017-12-29T09:48:47.188Z,99296
2017-12-29T09:49:48.221Z,99288
2017-12-29T09:50:48.288Z,99299
2017-12-29T09:51:48.252Z,99298
2017-12-29T09:52:47.387Z,99283
2017-12-29T09:53:47.306Z,99290
2017-12-29T09:54:48.425Z,99291
2017-12-29T09:55:48.502Z,99288
2017-12-29T09:56:48.429Z,99284
2017-12-29T09:57:48.493Z,99287
2017-12-29T09:58:47.662Z,99284
2017-12-29T09:59:48.700Z,99282
2017-12-29T10:00:47.642Z,99275
2017-12-29T10:01:48.796Z,99276
2017-12-29T10:02:47.731Z,99269
2017-12-29T10:03:48.915Z,99279
2017-12-29T10:04:47.978Z,99276
2017-12-29T10:05:48.026Z,99271
2017-12-29T10:06:48.046Z,99261
2017-12-29T10:07:49.030Z,99274
2017-12-29T10:08:47.967Z,99273
2017-12-29T10:09:49.070Z,99267
2017-12-29T10:10:48.976Z,99267
2017-12-29T10:11:49.168Z,99266
2017-12-29T10:12:49.238Z,99253
2017-12-29T10:13:48.147Z,99264
2017-12-29T10:14:48.282Z,99261
2017-12-29T10:15:48.367Z,99250
2017-12-29T10:16:49.390Z,99254
2017-12-29T10:17:49.500Z,99251
2017-12-29T10:18:48.542Z,99254
2017-12-29T10:19:49.594Z,99253
2017-12-29T10:20:48.704Z,99248
2017-12-29T10:21:48.611Z,99248
2017-12-29T10:22:49.763Z,99249
2017-12-29T10:23:49.879Z,99238
2017-12-29T10:24:48.850Z,99243
2017-12-29T10:25:49.891Z,99242
2017-12-29T10:26:49.003Z,99236
2017-12-29T10:27:50.110Z,99232
2017-12-29T10:28:50.196Z,99234
2017-12-29T10:29:49.341Z,99228
2017-12-29T10:30:50.364Z,99231
2017-12-29T10:31:49.357Z,99225
2017-12-29T10:32:50.391Z,99227
2017-12-29T10:33:50.544Z,99226
2017-12-29T10:34:49.505Z,99225
2017-12-29T10:35:50.606Z,99214
2017-12-29T10:36:49.606Z,99217
2017-12-29T10:37:49.676Z,99208
2017-12-29T10:38:50.813Z,99220
2017-12-29T10:39:49.846Z,99218
2017-12-29T10:40:50.000Z,99211
2017-12-29T10:41:49.883Z,99219
2017-12-29T10:42:49.978Z,99202
2017-12-29T10:43:50.099Z,99209
2017-12-29T10:44:51.120Z,99210
2017-12-29T10:45:50.234Z,99209
2017-12-29T10:46:51.137Z,99208
2017-12-29T10:47:51.306Z,99205
2017-12-29T10:48:51.173Z,99199
2017-12-29T10:49:50.355Z,99213
2017-12-29T10:50:50.255Z,99207
2017-12-29T10:51:50.321Z,99210
2017-12-29T10:52:50.525Z,99213
2017-12-29T10:53:51.597Z,99204
2017-12-29T10:54:50.554Z,99202
2017-12-29T10:55:50.593Z,99206
2017-12-29T10:56:51.610Z,99211
2017-12-29T10:57:50.646Z,99202
2017-12-29T10:58:51.774Z,99206
2017-12-29T10:59:50.878Z,99199
2017-12-29T11:00:51.856Z,99204
2017-12-29T11:01:50.870Z,99202
2017-12-29T11:02:51.867Z,99202
2017-12-29T11:03:50.983Z,99201
2017-12-29T11:04:52.152Z,99199
2017-12-29T11:05:51.147Z,99176
2017-12-29T11:06:51.242Z,99201
2017-12-29T11:07:52.243Z,99194
2017-12-29T11:08:52.298Z,99190
2017-12-29T11:09:51.285Z,99202
2017-12-29T11:10:51.299Z,99201
2017-12-29T11:11:51.340Z,99190
2017-12-29T11:12:51.450Z,99197
2017-12-29T11:13:51.536Z,99195
2017-12-29T11:14:52.704Z,99190
2017-12-29T11:15:51.697Z,99187
2017-12-29T11:16:51.709Z,99174
2017-12-29T11:17:52.856Z,99179
2017-12-29T11:18:51.934Z,99183
2017-12-29T11:19:51.863Z,99178
2017-12-29T11:20:51.918Z,99175
2017-12-29T11:21:52.074Z,99167
2017-12-29T11:22:52.131Z,99172
2017-12-29T11:23:52.082Z,99164
2017-12-29T11:24:52.098Z,99172
2017-12-29T11:25:52.204Z,99164
2017-12-29T11:26:52.256Z,99161
2017-12-29T11:27:52.343Z,99157
2017-12-29T11:28:52.368Z,99152
2017-12-29T11:29:52.324Z,99143
2017-12-29T11:30:52.363Z,99144
2017-12-29T11:31:53.356Z,99151
2017-12-29T11:32:53.428Z,99147
2017-12-29T11:33:53.458Z,99144
2017-12-29T11:34:53.658Z,99140
2017-12-29T11:35:53.743Z,99137
2017-12-29T11:36:52.745Z,99140
2017-12-29T11:37:52.887Z,99141
2017-12-29T11:38:52.933Z,99129
2017-12-29T11:39:53.008Z,99117
2017-12-29T11:40:52.977Z,99127
2017-12-29T11:41:53.052Z,99121
2017-12-29T11:42:54.199Z,99118
2017-12-29T11:43:53.169Z,99112
2017-12-29T11:44:53.175Z,99103
2017-12-29T11:45:54.297Z,99104
2017-12-29T11:46:53.290Z,99096
2017-12-29T11:47:53.452Z,99098
2017-12-29T11:48:54.350Z,99095
2017-12-29T11:49:54.441Z,99090
2017-12-29T11:50:54.502Z,99094
2017-12-29T11:51:53.700Z,99087
2017-12-29T11:52:53.755Z,99086
2017-12-29T11:53:53.687Z,99083
2017-12-29T11:54:53.761Z,99086
2017-12-29T11:55:53.835Z,99084
2017-12-29T11:56:54.849Z,99084
2017-12-29T11:57:54.004Z,99069
2017-12-29T11:58:53.988Z,99069
2017-12-29T11:59:54.107Z,99064
2017-12-29T12:00:55.118Z,99066
2017-12-29T12:01:54.215Z,99067
2017-12-29T12:02:54.259Z,99055
2017-12-29T12:03:55.396Z,99051
2017-12-29T12:04:55.410Z,99055
2017-12-29T12:05:55.465Z,99051
2017-12-29T12:06:55.599Z,99052
2017-12-29T12:07:55.593Z,99052
2017-12-29T12:08:55.579Z,99058
2017-12-29T12:09:55.706Z,99056
2017-12-29T12:10:55.795Z,99062
2017-12-29T12:11:54.810Z,99055
2017-12-29T12:12:54.750Z,99047
2017-12-29T12:13:54.934Z,99047
2017-12-29T12:14:54.850Z,99054
2017-12-29T12:15:54.913Z,99053
2017-12-29T12:16:54.970Z,99051
2017-12-29T12:17:56.101Z,99047
2017-12-29T12:18:55.160Z,99049
2017-12-29T12:19:56.186Z,99042
2017-12-29T12:20:56.237Z,99034
2017-12-29T12:21:55.245Z,99033
2017-12-29T12:22:56.256Z,99032
2017-12-29T12:23:56.337Z,99030
2017-12-29T12:24:55.287Z,99034
2017-12-29T12:25:55.326Z,99027
2017-12-29T12:26:55.494Z,99012
2017-12-29T12:27:55.573Z,99016
2017-12-29T12:28:55.656Z,99015
2017-12-29T12:29:55.756Z,99020
2017-12-29T12:30:55.715Z,99019
2017-12-29T12:31:55.877Z,99013
2017-12-29T12:32:56.815Z,99013
2017-12-29T12:33:56.989Z,99012
2017-12-29T12:34:56.900Z,99014
2017-12-29T12:35:57.093Z,99006
2017-12-29T12:36:57.000Z,98995
2017-12-29T12:37:56.174Z,98997
2017-12-29T12:38:57.240Z,98999
2017-12-29T12:39:56.210Z,98999
2017-12-29T12:40:56.279Z,98990
2017-12-29T12:41:57.444Z,98987
2017-12-29T12:42:56.482Z,98982
2017-12-29T12:43:56.495Z,98974
2017-12-29T12:44:57.498Z,98966
2017-12-29T12:45:56.448Z,98979
2017-12-29T12:46:56.515Z,98973
2017-12-29T12:47:56.542Z,98970
2017-12-29T12:48:57.677Z,98968
2017-12-29T12:49:57.644Z,98966
2017-12-29T12:50:56.760Z,98962
2017-12-29T12:51:56.838Z,98960
2017-12-29T12:52:57.858Z,98954